Terminal Aerodrome Forecast
Issued by NWS

Home | Current Version | Previous Version | Text Only | Print | Product List | Glossary On
Versions: 1 2 3 4 5 6 7 8 9 10 11 12 13 14 15 16 17 18 19
000
FTUS43 KMPX 031740
TAFRNH
TAF
KRNH 031740Z 0318/0418 13008KT P6SM SCT015
      TEMPO 0318/0319 BKN015
     FM032100 12007KT P6SM SKC
     FM040800 12005KT 4SM BR SCT004
     FM041500 13008KT P6SM SCT120=

USA.gov is the U.S. government's official web portal to all federal, state and local government web resources and services.